Time;durP1;ratioP1;P1;durP2;ratioP2;P2;SDS_P1;SDS_P2;PMS_P1;PMS_P2;Temp;Humidity;BMP_temperature;BMP_pressure;BME280_temperature;BME280_humidity;BME280_pressure;Samples;Min_cycle;Max_cycle;Signal;HPM_P1;HPM_P2
2021/08/13 00:01:09;;;;;;;3.92;2.70;;;17.20;99.90;;;16.82;91.64;101812.53;4121866;28;20454;-73
2021/08/13 00:03:10;;;;;;;3.05;2.65;;;17.10;99.90;;;16.82;92.01;101826.72;4121701;28;20030;-72
2021/08/13 00:05:12;;;;;;;3.58;2.72;;;17.10;99.90;;;16.77;92.27;101826.41;4120575;28;20072;-73
2021/08/13 00:07:13;;;;;;;4.13;2.50;;;17.00;99.90;;;16.75;92.81;101830.25;4121248;28;20027;-72
2021/08/13 00:09:14;;;;;;;4.22;3.10;;;17.00;99.90;;;16.74;93.10;101831.22;4120497;28;20109;-72
2021/08/13 00:11:15;;;;;;;3.67;2.83;;;16.90;99.90;;;16.75;93.11;101828.41;4136597;28;20026;-72
2021/08/13 00:13:16;;;;;;;5.20;2.97;;;16.90;99.90;;;16.95;92.17;101820.84;4120392;28;20037;-72
2021/08/13 00:15:17;;;;;;;2.97;2.60;;;16.90;99.90;;;16.81;92.38;101822.41;4120130;28;20403;-72
2021/08/13 00:17:18;;;;;;;4.28;2.90;;;17.00;99.90;;;16.73;93.64;101816.22;4120400;28;20058;-72
2021/08/13 00:19:19;;;;;;;3.00;2.22;;;16.90;99.90;;;16.72;93.76;101819.91;4121589;28;20106;-72
2021/08/13 00:21:20;;;;;;;3.40;2.63;;;17.00;99.90;;;16.70;94.03;101822.75;4121230;28;20058;-72
2021/08/13 00:23:21;;;;;;;4.65;3.40;;;16.90;99.90;;;16.75;94.17;101824.91;4120176;28;20027;-72
2021/08/13 00:25:22;;;;;;;5.25;3.17;;;16.90;99.90;;;16.74;94.01;101821.41;4129952;28;20526;-72
2021/08/13 00:27:22;;;;;;;5.15;2.80;;;16.90;99.90;;;16.79;94.07;101828.88;4120271;28;20023;-72
2021/08/13 00:29:23;;;;;;;6.03;2.72;;;16.90;99.90;;;16.86;93.58;101827.22;4136269;28;20022;-73
2021/08/13 00:31:24;;;;;;;6.05;3.03;;;16.90;99.90;;;16.90;93.60;101823.22;4119951;28;20074;-72
2021/08/13 00:33:25;;;;;;;4.40;3.22;;;16.90;99.90;;;16.90;93.57;101831.22;4121625;28;20513;-72
2021/08/13 00:35:26;;;;;;;5.15;2.95;;;16.90;99.90;;;16.87;93.48;101832.38;4120051;28;20031;-72
2021/08/13 00:37:27;;;;;;;3.70;2.72;;;16.90;99.90;;;16.76;94.30;101821.22;4135762;28;20026;-72
2021/08/13 00:39:28;;;;;;;4.32;2.80;;;17.00;99.90;;;16.77;94.05;101822.91;4135986;28;20029;-72
2021/08/13 00:41:30;;;;;;;4.43;2.75;;;16.90;99.90;;;16.83;94.44;101824.88;4119774;28;20054;-73
2021/08/13 00:43:31;;;;;;;4.43;2.90;;;16.90;99.90;;;16.80;94.21;101825.22;4121114;28;20031;-72
2021/08/13 00:45:32;;;;;;;4.95;2.70;;;16.90;99.90;;;16.70;95.13;101827.22;4119857;28;20037;-73
2021/08/13 00:47:33;;;;;;;6.05;3.10;;;16.90;99.90;;;16.74;95.52;101832.06;4120915;28;20487;-72
2021/08/13 00:49:33;;;;;;;4.32;3.58;;;16.90;99.90;;;16.71;95.75;101834.22;4152219;28;20057;-72
2021/08/13 00:51:35;;;;;;;3.60;2.67;;;16.80;99.90;;;16.58;96.04;101827.59;4120778;28;20035;-72
2021/08/13 00:53:36;;;;;;;4.72;3.15;;;16.80;99.90;;;16.49;96.69;101831.22;4119701;28;20034;-72
2021/08/13 00:55:37;;;;;;;7.07;3.63;;;16.80;99.90;;;16.64;96.02;101836.72;4120807;28;20157;-73
2021/08/13 00:57:39;;;;;;;5.07;3.40;;;16.70;99.90;;;16.87;95.09;101828.88;4119319;28;20027;-72
2021/08/13 00:59:41;;;;;;;4.65;3.97;;;16.80;99.90;;;16.89;94.84;101826.88;4135861;28;20557;-72
2021/08/13 01:01:42;;;;;;;6.75;3.83;;;16.80;99.90;;;16.94;94.94;101827.19;4119607;28;20157;-72
2021/08/13 01:03:43;;;;;;;5.03;3.70;;;16.90;99.90;;;16.90;95.40;101833.88;4135604;28;20022;-72
2021/08/13 01:05:44;;;;;;;4.68;3.50;;;16.90;99.90;;;16.93;95.16;101828.19;4119794;28;20042;-72
2021/08/13 01:07:45;;;;;;;8.10;4.03;;;17.00;99.90;;;16.83;95.78;101838.22;4120502;28;20033;-72
2021/08/13 01:09:46;;;;;;;6.07;4.30;;;16.90;99.90;;;16.79;96.40;101837.72;4103408;28;20122;-72
2021/08/13 01:11:55;;;;;;;4.28;3.42;;;16.90;99.90;;;16.81;96.67;101835.72;4119322;28;20058;-72
2021/08/13 01:14:30;;;;;;;5.38;3.63;;;16.90;99.90;;;16.79;96.68;101831.53;4120998;28;20030;-72
2021/08/13 01:16:34;;;;;;;4.85;3.63;;;16.90;99.90;;;16.84;96.32;101829.22;4119367;28;20039;-72
2021/08/13 01:18:41;;;;;;;4.28;3.75;;;16.90;99.90;;;16.74;96.34;101828.56;4103502;28;20038;-72
2021/08/13 01:21:18;;;;;;;5.95;4.65;;;16.90;99.90;;;16.77;96.33;101829.06;4119703;28;20118;-72
2021/08/13 01:23:31;;;;;;;4.75;3.20;;;16.90;99.90;;;16.62;97.64;101833.41;4120402;28;20110;-72
2021/08/13 01:25:39;;;;;;;5.00;2.95;;;16.80;99.90;;;16.51;98.53;101845.22;4119332;28;20027;-73
2021/08/13 01:27:46;;;;;;;5.10;3.55;;;16.70;99.90;;;16.45;99.24;101837.06;4119365;28;20518;-73
2021/08/13 01:29:53;;;;;;;5.53;3.63;;;16.70;99.90;;;16.37;99.35;101848.53;4103187;28;20023;-72
2021/08/13 01:32:12;;;;;;;4.97;3.53;;;16.60;99.90;;;16.32;99.58;101850.06;4119375;28;20391;-73
2021/08/13 01:34:18;;;;;;;3.90;3.33;;;16.50;99.90;;;16.28;99.43;101844.22;4120394;28;20061;-72
2021/08/13 01:36:21;;;;;;;5.85;3.90;;;16.50;99.90;;;16.36;98.61;101846.06;4118751;28;20054;-73
2021/08/13 01:38:27;;;;;;;4.53;3.30;;;16.50;99.90;;;16.25;98.82;101841.03;4119375;28;20019;-72
2021/08/13 01:40:30;;;;;;;6.22;4.00;;;16.40;99.90;;;16.27;99.20;101845.22;4103177;28;20091;-73
2021/08/13 01:42:33;;;;;;;4.78;3.38;;;16.40;99.90;;;16.15;99.38;101838.56;4115258;28;20085;-73
2021/08/13 01:44:36;;;;;;;5.75;3.55;;;16.30;99.90;;;16.18;99.90;101848.88;4102942;28;20043;-72
2021/08/13 01:46:39;;;;;;;6.00;3.70;;;16.30;99.90;;;16.09;100.00;101841.91;4119269;28;20521;-72
2021/08/13 01:48:40;;;;;;;5.82;3.25;;;16.30;99.90;;;16.03;100.00;101851.38;4119096;28;20097;-72
2021/08/13 01:50:42;;;;;;;5.50;3.78;;;16.30;99.90;;;16.05;100.00;101845.88;4119076;28;20386;-73
2021/08/13 01:52:44;;;;;;;5.50;3.25;;;16.20;99.90;;;16.05;100.00;101867.16;4118711;28;20033;-73
2021/08/13 01:54:46;;;;;;;6.28;3.88;;;16.20;99.90;;;16.00;100.00;101849.03;4102886;28;20058;-73
2021/08/13 01:56:47;;;;;;;5.90;3.10;;;16.20;99.90;;;16.01;100.00;101853.34;4135052;28;20120;-72
2021/08/13 01:58:49;;;;;;;4.68;3.47;;;16.20;99.90;;;16.08;99.29;101848.22;4118747;28;20030;-72
2021/08/13 02:00:54;;;;;;;4.07;3.00;;;16.20;99.90;;;16.09;99.37;101843.72;4134867;28;20066;-72
2021/08/13 02:02:57;;;;;;;5.18;3.58;;;16.20;99.90;;;15.98;99.78;101853.69;4119143;28;20576;-73
2021/08/13 02:04:58;;;;;;;4.43;3.30;;;16.10;99.90;;;15.95;100.00;101847.84;4118623;28;20033;-73
2021/08/13 02:06:59;;;;;;;7.30;4.22;;;16.10;99.90;;;15.97;99.01;101857.34;4118417;28;20030;-73
2021/08/13 02:09:01;;;;;;;5.22;3.90;;;16.10;99.90;;;16.13;98.77;101847.72;4118048;28;20031;-72
2021/08/13 02:11:05;;;;;;;4.95;3.67;;;16.10;99.90;;;16.05;99.32;101853.84;4118848;28;20023;-73
2021/08/13 02:13:06;;;;;;;6.10;3.70;;;16.10;99.90;;;16.12;98.59;101854.88;4118729;28;20459;-73
2021/08/13 02:15:10;;;;;;;6.95;3.47;;;16.20;99.90;;;16.06;99.17;101858.19;4118515;28;20035;-73
2021/08/13 02:17:22;;;;;;;4.55;3.75;;;16.10;99.90;;;16.03;99.20;101858.53;4118750;28;20037;-73
2021/08/13 02:19:41;;;;;;;5.47;3.85;;;16.10;99.90;;;16.16;97.98;101856.19;4102614;28;20482;-72
2021/08/13 02:21:46;;;;;;;4.78;3.53;;;16.10;99.90;;;15.87;98.97;101856.66;4103391;28;20042;-72
2021/08/13 02:23:47;;;;;;;7.72;3.63;;;16.00;99.90;;;16.04;98.35;101853.03;4118862;28;20022;-72
2021/08/13 02:25:48;;;;;;;4.90;3.63;;;16.10;99.90;;;15.96;98.76;101850.34;4118551;28;20054;-72
2021/08/13 02:27:51;;;;;;;5.38;3.30;;;16.00;99.90;;;15.93;99.28;101871.97;4118592;28;20120;-73
2021/08/13 02:29:55;;;;;;;6.35;4.10;;;16.00;99.90;;;15.99;98.63;101858.00;4119547;28;20031;-73
2021/08/13 02:31:56;;;;;;;7.03;4.20;;;16.00;99.90;;;16.06;98.28;101850.22;4118702;28;20030;-72
2021/08/13 02:33:57;;;;;;;4.32;3.88;;;16.10;99.90;;;16.08;96.97;101858.00;4134602;28;20058;-72
2021/08/13 02:36:44;;;;;;;5.88;4.13;;;16.10;99.90;;;15.96;99.61;101866.31;4119604;28;20098;-72
2021/08/13 02:38:55;;;;;;;5.75;3.63;;;16.10;99.90;;;16.01;99.47;101864.00;4118767;28;20035;-72
2021/08/13 02:41:01;;;;;;;4.70;3.75;;;16.10;99.90;;;15.99;99.31;101865.16;4119461;28;20026;-73
2021/08/13 02:43:12;;;;;;;8.02;4.78;;;16.10;99.90;;;16.04;98.50;101860.16;4134548;28;20038;-73
2021/08/13 02:45:24;;;;;;;5.78;4.40;;;16.20;99.90;;;16.08;98.10;101864.19;4118673;28;20085;-72
2021/08/13 02:47:28;;;;;;;8.68;4.63;;;16.20;99.90;;;16.07;98.27;101873.16;4118767;28;20113;-73
2021/08/13 02:49:29;;;;;;;6.13;4.15;;;16.20;99.90;;;16.06;98.17;101860.84;4118501;28;20027;-72
2021/08/13 02:51:34;;;;;;;7.50;5.93;;;16.30;99.90;;;16.04;99.15;101873.47;4119445;28;20127;-72
2021/08/13 02:53:39;;;;;;;6.78;4.78;;;16.30;99.90;;;16.06;99.39;101866.19;4119670;28;20027;-72
2021/08/13 02:55:46;;;;;;;5.63;5.03;;;16.30;99.90;;;16.01;99.99;101871.13;4118345;28;20038;-72
2021/08/13 02:57:55;;;;;;;6.05;5.45;;;16.30;99.90;;;15.91;100.00;101860.66;4118498;28;20019;-72
2021/08/13 02:59:56;;;;;;;5.55;4.65;;;16.30;99.90;;;15.95;100.00;101872.63;4118515;28;20569;-73
2021/08/13 03:02:01;;;;;;;5.80;4.85;;;16.30;99.90;;;15.89;100.00;101872.44;4118487;28;20031;-72
2021/08/13 03:04:04;;;;;;;7.18;5.40;;;16.30;99.90;;;15.89;100.00;101875.09;4119403;28;20089;-72
2021/08/13 03:06:10;;;;;;;8.57;5.82;;;16.30;99.90;;;15.83;100.00;101878.44;4119342;28;20034;-72
2021/08/13 03:08:10;;;;;;;11.07;6.97;;;16.20;99.90;;;15.58;100.00;101874.88;4118451;28;20031;-72
2021/08/13 03:10:12;;;;;;;11.43;6.38;;;16.20;99.90;;;15.67;100.00;101870.41;4118095;28;20112;-72
2021/08/13 03:12:14;;;;;;;7.60;6.50;;;16.10;99.90;;;15.73;100.00;101883.06;4119512;28;20026;-72
2021/08/13 03:14:15;;;;;;;7.68;6.35;;;16.10;99.90;;;15.74;100.00;101879.41;4102160;28;20027;-72
2021/08/13 03:16:17;;;;;;;7.18;6.20;;;16.10;99.90;;;15.78;100.00;101870.09;4118276;28;20031;-73
2021/08/13 03:18:19;;;;;;;6.20;5.60;;;16.10;99.90;;;15.85;100.00;101879.09;4118119;28;20139;-72
2021/08/13 03:20:21;;;;;;;6.70;5.80;;;16.10;99.90;;;15.84;100.00;101872.09;4102929;28;20072;-72
2021/08/13 03:22:22;;;;;;;12.48;5.97;;;16.10;99.90;;;15.83;100.00;101876.59;4120919;28;20037;-72
2021/08/13 03:24:23;;;;;;;12.98;6.28;;;16.20;99.90;;;15.74;100.00;101877.56;4120986;28;20101;-72
2021/08/13 03:26:26;;;;;;;8.00;5.68;;;16.20;99.90;;;15.61;100.00;101866.56;4121016;28;20109;-72
2021/08/13 03:28:27;;;;;;;6.53;5.57;;;16.10;99.90;;;15.70;100.00;101872.75;4121298;28;20054;-73
2021/08/13 03:30:28;;;;;;;8.68;6.10;;;16.10;99.90;;;15.61;100.00;101871.88;4104984;29;20027;-72
2021/08/13 03:32:32;;;;;;;7.50;6.40;;;16.10;99.90;;;15.69;100.00;101866.59;4121201;28;20031;-72
2021/08/13 03:34:33;;;;;;;11.90;6.32;;;16.10;99.90;;;15.63;100.00;101869.88;4104726;28;20093;-73
2021/08/13 03:36:36;;;;;;;8.25;6.25;;;16.10;99.90;;;15.66;100.00;101868.72;4121866;28;20023;-72
2021/08/13 03:38:37;;;;;;;8.15;6.05;;;16.10;99.90;;;15.71;100.00;101877.88;4122062;28;20027;-72
2021/08/13 03:40:38;;;;;;;7.63;6.47;;;16.10;99.90;;;15.76;100.00;101870.28;4122085;28;20027;-72
2021/08/13 03:42:39;;;;;;;6.32;5.55;;;16.10;99.90;;;15.81;100.00;101872.44;4121719;28;20046;-72
2021/08/13 03:44:39;;;;;;;8.02;6.47;;;16.10;99.90;;;15.78;100.00;101868.28;4122205;28;20086;-73
2021/08/13 03:46:40;;;;;;;8.60;7.45;;;16.10;99.90;;;15.79;100.00;101871.78;4121989;28;20081;-72
2021/08/13 03:48:41;;;;;;;10.40;7.05;;;16.20;99.90;;;15.89;100.00;101875.94;4136767;28;20069;-73
2021/08/13 03:50:42;;;;;;;10.40;7.72;;;16.20;99.90;;;15.95;100.00;101869.97;4136931;28;20532;-72
2021/08/13 03:52:44;;;;;;;14.02;7.80;;;16.30;99.90;;;15.89;100.00;101881.25;4152690;28;20453;-72
2021/08/13 03:54:46;;;;;;;8.95;7.13;;;16.30;99.90;;;15.91;100.00;101878.47;4121891;28;20023;-72
2021/08/13 03:56:47;;;;;;;9.70;7.20;;;16.30;99.90;;;15.97;100.00;101872.47;4136629;28;20026;-72
2021/08/13 03:58:48;;;;;;;9.13;7.57;;;16.30;99.90;;;15.96;100.00;101866.31;4136656;28;20509;-72
2021/08/13 04:00:48;;;;;;;8.32;7.15;;;16.30;99.90;;;15.99;100.00;101870.47;4120614;28;20078;-72
2021/08/13 04:02:49;;;;;;;12.77;8.13;;;16.40;99.90;;;15.91;100.00;101865.16;4136650;28;20030;-72
2021/08/13 04:04:50;;;;;;;9.23;7.40;;;16.40;99.90;;;16.08;100.00;101879.31;4120503;28;20123;-73
2021/08/13 04:06:51;;;;;;;9.13;7.22;;;16.30;99.90;;;16.07;100.00;101873.16;4136259;28;20033;-72
2021/08/13 04:08:52;;;;;;;8.70;7.63;;;16.40;99.90;;;16.08;100.00;101868.66;4136308;28;20073;-72
2021/08/13 04:10:53;;;;;;;9.32;8.32;;;16.40;99.90;;;16.18;100.00;101885.31;4136470;28;20026;-73
2021/08/13 04:12:54;;;;;;;10.90;8.43;;;16.40;99.90;;;16.25;100.00;101871.19;4120561;28;20050;-73
2021/08/13 04:14:55;;;;;;;11.55;8.68;;;16.50;99.90;;;16.27;100.00;101868.38;4120314;28;20022;-72
2021/08/13 04:16:56;;;;;;;11.05;8.25;;;16.50;99.90;;;16.12;100.00;101876.16;4121213;28;20090;-72
2021/08/13 04:18:57;;;;;;;10.57;8.00;;;16.50;99.90;;;16.14;100.00;101876.84;4120317;28;20482;-73
2021/08/13 04:20:58;;;;;;;11.50;8.00;;;16.50;99.90;;;16.04;100.00;101881.47;4152048;28;20125;-73
2021/08/13 04:22:58;;;;;;;13.27;9.90;;;16.50;99.90;;;16.08;100.00;101879.31;4121503;28;20052;-73
2021/08/13 04:24:59;;;;;;;9.98;7.85;;;16.50;99.90;;;16.11;100.00;101879.81;4119934;28;20525;-73
2021/08/13 04:27:01;;;;;;;8.38;7.47;;;16.50;99.90;;;16.14;100.00;101879.50;4136403;28;20026;-73
2021/08/13 04:29:02;;;;;;;9.63;8.48;;;16.50;99.90;;;16.12;100.00;101870.84;4120160;28;20581;-73
2021/08/13 04:31:03;;;;;;;15.02;9.85;;;16.50;99.90;;;16.13;100.00;101877.81;4121238;28;20034;-72
2021/08/13 04:33:12;;;;;;;10.95;8.52;;;16.50;99.90;;;16.09;100.00;101881.81;4119147;28;20027;-72
2021/08/13 04:35:13;;;;;;;12.32;9.48;;;16.50;99.90;;;16.19;100.00;101879.81;4120042;28;20035;-72
2021/08/13 04:37:14;;;;;;;10.88;8.73;;;16.60;99.90;;;16.25;100.00;101881.00;4120903;28;20033;-73
2021/08/13 04:39:15;;;;;;;11.88;8.98;;;16.60;99.90;;;16.23;100.00;101889.16;4104042;28;20506;-73
2021/08/13 04:41:16;;;;;;;17.40;10.70;;;16.60;99.90;;;16.34;100.00;101896.81;4135456;28;20070;-73
2021/08/13 04:43:17;;;;;;;13.00;9.48;;;16.60;99.90;;;16.36;100.00;101894.00;4115065;28;20085;-73
2021/08/13 04:45:18;;;;;;;11.70;9.48;;;16.60;99.90;;;16.41;100.00;101891.66;4121089;28;20089;-73
2021/08/13 04:47:19;;;;;;;11.10;8.93;;;16.60;99.90;;;16.45;100.00;101885.84;4119767;28;20081;-72
2021/08/13 04:49:19;;;;;;;12.70;9.90;;;16.70;99.90;;;16.51;100.00;101882.53;4135757;28;20030;-73
2021/08/13 04:51:20;;;;;;;15.68;9.45;;;16.70;99.90;;;16.31;100.00;101886.50;4119596;28;20482;-73
2021/08/13 04:53:21;;;;;;;12.32;9.13;;;16.70;99.90;;;16.32;100.00;101876.69;4119591;28;20022;-73
2021/08/13 04:55:26;;;;;;;13.07;9.15;;;16.70;99.90;;;16.33;100.00;101887.19;4119656;28;20031;-73
2021/08/13 04:57:27;;;;;;;11.45;7.63;;;16.70;99.90;;;16.30;100.00;101890.16;4119502;28;20058;-73
2021/08/13 04:59:28;;;;;;;12.50;9.30;;;16.70;99.90;;;16.26;100.00;101888.81;4119763;28;20030;-73
2021/08/13 05:01:29;;;;;;;13.25;9.25;;;16.70;99.90;;;16.33;100.00;101887.19;4135553;28;20050;-73
2021/08/13 05:03:30;;;;;;;12.07;9.70;;;16.70;99.90;;;16.42;100.00;101893.34;4120801;28;20383;-72
2021/08/13 05:05:31;;;;;;;13.77;9.23;;;16.70;99.90;;;16.37;100.00;101885.81;4120520;28;20027;-72
2021/08/13 05:07:33;;;;;;;13.10;10.25;;;16.70;99.90;;;16.42;100.00;101890.69;4120510;28;20027;-73
2021/08/13 05:09:35;;;;;;;11.85;10.00;;;16.70;99.90;;;16.52;100.00;101886.84;4135491;28;20041;-72
2021/08/13 05:11:37;;;;;;;14.00;10.35;;;16.80;99.90;;;16.67;100.00;101907.50;4135496;28;20026;-73
2021/08/13 05:13:38;;;;;;;12.82;10.50;;;16.90;99.90;;;16.66;100.00;101903.19;4120440;28;20026;-72
2021/08/13 05:15:38;;;;;;;11.07;9.50;;;16.90;99.90;;;16.54;100.00;101895.53;4135613;28;20026;-73
2021/08/13 05:17:40;;;;;;;12.63;9.65;;;16.90;99.90;;;16.48;100.00;101903.31;4120691;28;20033;-73
2021/08/13 05:19:41;;;;;;;11.07;9.30;;;16.80;99.90;;;16.38;100.00;101907.97;4119223;28;20077;-72
2021/08/13 05:21:42;;;;;;;11.68;8.85;;;16.90;99.90;;;16.54;100.00;101906.19;4118877;28;20026;-72
2021/08/13 05:23:43;;;;;;;12.80;9.68;;;16.90;99.90;;;16.59;100.00;101903.84;4120478;28;20462;-72
2021/08/13 05:25:44;;;;;;;9.45;7.60;;;17.00;99.90;;;16.54;100.00;101900.03;4119293;28;20110;-72
2021/08/13 05:27:46;;;;;;;10.45;7.35;;;16.90;99.90;;;16.55;100.00;101909.66;4120354;28;20129;-72
2021/08/13 05:29:47;;;;;;;11.75;9.48;;;16.90;99.90;;;16.48;100.00;101904.16;4118813;28;20061;-72
2021/08/13 05:31:48;;;;;;;10.70;8.23;;;16.90;99.90;;;16.53;100.00;101915.16;4119405;28;20404;-72
2021/08/13 05:33:49;;;;;;;10.98;8.27;;;16.90;99.90;;;16.58;100.00;101917.31;4135234;28;20034;-73
2021/08/13 05:35:49;;;;;;;14.40;10.52;;;16.90;99.90;;;16.70;100.00;101910.66;4102696;29;20030;-72
2021/08/13 05:37:50;;;;;;;14.38;9.65;;;17.00;99.90;;;16.68;100.00;101919.84;4120032;28;20029;-72
2021/08/13 05:39:51;;;;;;;11.65;8.80;;;17.00;99.90;;;16.73;100.00;101921.00;4119033;28;20019;-72
2021/08/13 05:41:53;;;;;;;12.93;8.90;;;17.10;99.90;;;16.69;100.00;101926.84;4118684;28;20051;-73
2021/08/13 05:43:53;;;;;;;10.85;9.73;;;17.10;99.90;;;16.74;100.00;101921.81;4097452;28;20172;-73
2021/08/13 05:45:54;;;;;;;10.93;8.73;;;17.10;99.90;;;16.85;100.00;101935.63;4102613;28;20077;-72
2021/08/13 05:47:56;;;;;;;10.05;7.95;;;17.10;99.90;;;16.81;100.00;101925.50;4118857;28;20038;-72
2021/08/13 05:49:57;;;;;;;15.52;10.25;;;17.10;99.90;;;16.70;100.00;101923.16;4119128;28;20039;-72
2021/08/13 05:51:58;;;;;;;11.80;8.73;;;17.20;99.90;;;16.78;100.00;101925.84;4119975;28;20556;-72
2021/08/13 05:53:59;;;;;;;12.40;8.35;;;17.20;99.90;;;16.80;100.00;101924.66;4118799;28;20530;-73
2021/08/13 05:56:00;;;;;;;13.00;9.40;;;17.20;99.90;;;16.85;100.00;101918.81;4118832;28;20031;-72
2021/08/13 05:58:01;;;;;;;11.82;8.75;;;17.20;99.90;;;17.00;100.00;101919.78;4118941;28;20086;-72
2021/08/13 06:00:05;;;;;;;11.07;8.48;;;17.30;99.90;;;17.01;100.00;101918.81;4120067;28;20030;-72
2021/08/13 06:02:06;;;;;;;11.18;7.85;;;17.30;99.90;;;16.96;100.00;101929.16;4118500;28;20034;-72
2021/08/13 06:04:07;;;;;;;11.25;8.18;;;17.30;99.90;;;16.91;100.00;101926.97;4118949;28;20433;-72
2021/08/13 06:06:08;;;;;;;9.75;8.25;;;17.30;99.90;;;16.98;100.00;101924.47;4119767;28;20034;-72
2021/08/13 06:08:09;;;;;;;10.35;7.93;;;17.40;99.90;;;16.98;100.00;101935.13;4119879;28;20107;-72
2021/08/13 06:10:10;;;;;;;9.10;7.80;;;17.40;99.90;;;17.02;100.00;101937.28;4118524;28;20035;-72
2021/08/13 06:12:11;;;;;;;8.30;7.30;;;17.40;99.90;;;16.99;100.00;101942.94;4119851;28;20031;-72
2021/08/13 06:14:12;;;;;;;10.80;7.35;;;17.40;99.90;;;17.03;100.00;101946.94;4118763;28;20034;-72
2021/08/13 06:16:18;;;;;;;8.32;6.90;;;17.40;99.90;;;17.00;100.00;101947.28;4119908;28;20395;-73
2021/08/13 06:18:19;;;;;;;9.82;7.45;;;17.40;99.90;;;17.17;100.00;101957.94;4118881;28;20027;-74
2021/08/13 06:20:23;;;;;;;10.60;7.32;;;17.40;99.90;;;17.10;100.00;101968.44;4127858;28;20066;-73
2021/08/13 06:22:24;;;;;;;9.27;6.60;;;17.50;99.90;;;17.08;100.00;101965.94;4120713;28;20030;-73
2021/08/13 06:24:27;;;;;;;9.10;6.97;;;17.50;99.90;;;17.10;100.00;101960.44;4132729;28;20406;-72
2021/08/13 06:26:28;;;;;;;7.88;6.50;;;17.50;99.90;;;17.14;100.00;101965.25;4118680;28;20118;-73
2021/08/13 06:28:29;;;;;;;9.57;6.95;;;17.60;99.90;;;17.06;100.00;101969.78;4117198;28;20034;-72
2021/08/13 06:30:30;;;;;;;10.23;7.43;;;17.60;99.90;;;17.07;100.00;101974.13;4118877;28;20031;-72
2021/08/13 06:32:30;;;;;;;8.60;6.78;;;17.60;99.90;;;17.10;100.00;101973.78;4119339;28;20038;-72
2021/08/13 06:34:31;;;;;;;10.52;6.45;;;17.60;99.90;;;17.15;100.00;101979.44;4119417;28;20034;-72
2021/08/13 06:36:32;;;;;;;9.05;6.32;;;17.60;99.90;;;17.21;100.00;101989.41;4119444;28;20486;-73
2021/08/13 06:38:33;;;;;;;8.02;5.85;;;17.60;99.90;;;17.17;100.00;101988.13;4119509;28;20058;-73
2021/08/13 06:40:34;;;;;;;8.88;6.45;;;17.70;99.90;;;17.20;100.00;101995.78;4116301;28;20035;-71
2021/08/13 06:42:35;;;;;;;7.82;6.53;;;17.70;99.90;;;17.28;100.00;101997.59;4106324;28;20105;-71
2021/08/13 06:44:36;;;;;;;9.30;7.43;;;17.80;99.90;;;17.38;100.00;101992.91;4116966;28;20027;-72
2021/08/13 06:46:37;;;;;;;6.95;6.25;;;17.80;99.90;;;17.45;100.00;101994.72;4117772;28;20430;-72
2021/08/13 06:48:38;;;;;;;9.95;6.30;;;17.80;99.90;;;17.43;100.00;101994.06;4118887;28;20035;-71
2021/08/13 06:50:39;;;;;;;7.38;5.78;;;17.80;99.90;;;17.30;100.00;101995.56;4118740;28;20043;-71
2021/08/13 06:52:40;;;;;;;7.78;5.82;;;17.80;99.90;;;17.50;100.00;102002.22;4117662;28;20604;-72
2021/08/13 06:54:40;;;;;;;6.38;5.00;;;17.90;99.90;;;17.52;100.00;101995.72;4118929;28;20030;-71
2021/08/13 06:56:42;;;;;;;7.80;5.47;;;17.90;99.90;;;17.59;100.00;102002.03;4120728;28;20038;-71
2021/08/13 06:58:42;;;;;;;6.25;5.43;;;18.00;99.90;;;17.52;99.77;102000.22;4136910;28;20486;-71
2021/08/13 07:00:43;;;;;;;8.38;4.78;;;18.00;99.90;;;17.42;99.78;102000.38;4120853;28;20049;-71
2021/08/13 07:02:46;;;;;;;6.25;4.78;;;18.00;99.90;;;17.38;100.00;101996.38;4120992;28;20114;-71
2021/08/13 07:04:47;;;;;;;6.05;4.95;;;18.00;99.90;;;17.39;100.00;102005.22;4122162;28;20110;-72
2021/08/13 07:06:48;;;;;;;7.45;5.72;;;18.00;99.90;;;17.52;100.00;102014.38;4120335;28;20031;-71
2021/08/13 07:08:49;;;;;;;12.88;5.97;;;18.00;99.90;;;17.41;99.60;102000.56;4121697;28;20098;-72
2021/08/13 07:10:50;;;;;;;10.98;5.72;;;18.00;99.90;;;17.45;100.00;102013.38;4121812;28;20383;-72
2021/08/13 07:12:51;;;;;;;7.47;5.57;;;18.10;99.90;;;17.56;99.79;102005.03;4120860;28;20050;-71
2021/08/13 07:14:52;;;;;;;5.18;4.45;;;18.10;99.90;;;17.64;98.77;102002.38;4120630;28;20031;-73
2021/08/13 07:16:53;;;;;;;6.85;5.07;;;18.20;99.90;;;17.85;97.36;102008.97;4136467;28;20130;-72
2021/08/13 07:18:54;;;;;;;7.68;5.55;;;18.30;99.90;;;17.91;96.73;102003.78;4121676;28;20023;-72
2021/08/13 07:20:55;;;;;;;5.63;4.75;;;18.40;99.90;;;17.95;96.99;102009.63;4120275;28;20018;-72
2021/08/13 07:22:56;;;;;;;6.25;4.40;;;18.50;99.90;;;18.06;96.21;102014.56;4120364;28;20030;-72
2021/08/13 07:24:57;;;;;;;9.52;5.50;;;18.60;99.90;;;18.07;96.26;102005.56;4136300;28;20506;-71
2021/08/13 07:26:59;;;;;;;9.15;5.18;;;18.60;99.90;;;18.02;96.28;102014.06;4120582;28;20069;-72
2021/08/13 07:29:00;;;;;;;6.20;5.00;;;18.70;99.90;;;17.94;96.27;102005.28;4120432;28;20034;-71
2021/08/13 07:31:00;;;;;;;5.40;4.32;;;18.70;99.90;;;18.16;94.58;102015.16;4120383;28;20038;-72
2021/08/13 07:33:01;;;;;;;6.95;4.97;;;18.80;99.90;;;18.23;94.84;102018.81;4120263;28;20027;-72
2021/08/13 07:35:03;;;;;;;6.13;4.68;;;18.90;99.90;;;18.42;94.78;102037.09;4120450;28;20023;-71
2021/08/13 07:37:04;;;;;;;6.15;4.82;;;19.10;99.90;;;18.41;92.92;102040.75;4150424;28;20108;-72
2021/08/13 07:39:05;;;;;;;5.32;4.28;;;19.20;99.90;;;18.55;93.21;102034.69;4119974;28;20026;-72
2021/08/13 07:41:10;;;;;;;7.32;5.07;;;19.20;99.90;;;18.44;92.83;102043.06;4108301;28;20395;-72
2021/08/13 07:43:11;;;;;;;6.43;4.88;;;19.30;99.90;;;18.50;92.82;102039.72;4120799;28;20081;-72
2021/08/13 07:45:12;;;;;;;4.90;4.40;;;19.30;99.90;;;18.57;92.84;102043.38;4120581;28;20034;-72
2021/08/13 07:47:14;;;;;;;6.40;4.82;;;19.30;99.90;;;18.59;92.72;102041.34;4136722;28;20075;-72
2021/08/13 07:49:15;;;;;;;7.15;4.40;;;19.30;99.90;;;18.62;92.57;102043.66;4120412;28;20094;-72
2021/08/13 07:51:16;;;;;;;5.18;3.88;;;19.30;99.90;;;18.60;92.58;102039.50;4121537;28;20074;-72
2021/08/13 07:53:17;;;;;;;5.32;3.85;;;19.50;99.90;;;18.63;90.82;102040.00;4120595;28;20026;-72
2021/08/13 07:55:18;;;;;;;5.50;3.53;;;19.50;99.90;;;18.87;88.70;102055.03;4121762;28;20029;-72
2021/08/13 07:57:19;;;;;;;8.90;3.55;;;19.60;99.90;;;18.97;87.52;102052.09;4120322;28;20154;-72
2021/08/13 07:59:20;;;;;;;4.43;3.30;;;19.70;99.90;;;18.94;87.38;102047.09;4121606;28;20494;-72
2021/08/13 08:01:21;;;;;;;3.95;3.13;;;19.80;99.90;;;18.95;87.40;102052.28;4120080;28;20065;-72
2021/08/13 08:03:22;;;;;;;5.97;3.90;;;19.90;99.90;;;19.09;85.98;102046.16;4120361;28;20034;-71
2021/08/13 08:05:23;;;;;;;4.35;3.10;;;19.90;99.90;;;19.12;86.29;102045.78;4136320;28;20064;-72
2021/08/13 08:07:24;;;;;;;4.78;3.35;;;19.80;99.90;;;19.12;85.09;102044.97;4118821;28;20027;-72
2021/08/13 08:09:25;;;;;;;7.75;3.92;;;19.80;99.90;;;18.96;84.78;102040.59;4104483;28;20411;-72
2021/08/13 08:11:26;;;;;;;5.18;3.97;;;19.70;99.90;;;19.05;84.17;102057.41;4120013;28;20038;-72
2021/08/13 08:13:27;;;;;;;4.75;3.50;;;19.70;99.90;;;18.95;83.63;102057.66;4121107;28;20594;-72
2021/08/13 08:15:28;;;;;;;4.47;3.15;;;19.60;99.90;;;18.89;84.60;102047.66;4120238;28;20090;-73
2021/08/13 08:17:30;;;;;;;6.18;3.53;;;19.60;99.90;;;18.81;84.32;102055.75;4121313;28;20018;-73
2021/08/13 08:19:31;;;;;;;4.38;3.00;;;19.50;99.90;;;18.76;85.27;102053.59;4120059;28;20042;-72
2021/08/13 08:21:32;;;;;;;4.38;3.60;;;19.40;99.90;;;18.81;85.93;102055.75;4103434;29;20102;-72
2021/08/13 08:23:33;;;;;;;4.07;3.40;;;19.40;99.90;;;18.85;86.09;102065.06;4119961;28;20494;-72
2021/08/13 08:25:34;;;;;;;4.85;3.88;;;19.40;99.90;;;18.76;86.50;102060.78;4121116;28;20075;-72